Time;durP1;ratioP1;P1;durP2;ratioP2;P2;SDS_P1;SDS_P2;PMS_P1;PMS_P2;Temp;Humidity;BMP_temperature;BMP_pressure;BME280_temperature;BME280_humidity;BME280_pressure;Samples;Min_cycle;Max_cycle;Signal;HPM_P1;HPM_P2
2023/10/30 00:02:09;;;;;;;10.87;2.10;;;;;;;;;;5038087;28;20288;-88
2023/10/30 00:04:36;;;;;;;12.43;2.27;;;;;;;;;;5031486;28;20212;-88
2023/10/30 00:07:04;;;;;;;11.80;2.60;;;;;;;;;;5041506;28;20203;-89
2023/10/30 00:09:31;;;;;;;12.73;2.60;;;;;;;;;;5042464;28;20302;-88
2023/10/30 00:12:00;;;;;;;13.40;2.20;;;;;;;;;;5038566;28;20219;-88
2023/10/30 00:14:27;;;;;;;11.70;2.67;;;;;;;;;;5049262;28;20209;-88
2023/10/30 00:16:55;;;;;;;12.87;2.20;;;;;;;;;;5034512;28;20211;-87
2023/10/30 00:19:24;;;;;;;7.40;1.77;;;;;;;;;;5035485;28;20242;-88
2023/10/30 00:21:51;;;;;;;13.17;2.10;;;;;;;;;;5036845;28;20765;-88
2023/10/30 00:24:19;;;;;;;17.13;2.47;;;;;;;;;;5044535;28;20298;-88
2023/10/30 00:26:46;;;;;;;11.47;2.17;;;;;;;;;;5023638;28;20665;-88
2023/10/30 00:29:13;;;;;;;8.77;2.03;;;;;;;;;;5037787;28;20292;-88
2023/10/30 00:31:42;;;;;;;13.27;2.20;;;;;;;;;;5040887;28;20200;-89
2023/10/30 00:34:12;;;;;;;10.53;1.90;;;;;;;;;;5037308;28;20571;-88
2023/10/30 00:36:41;;;;;;;11.77;2.37;;;;;;;;;;5005185;28;20775;-88
2023/10/30 00:39:08;;;;;;;13.33;2.00;;;;;;;;;;5033937;28;20220;-88
2023/10/30 00:41:35;;;;;;;11.30;2.03;;;;;;;;;;5027697;28;20715;-89
2023/10/30 00:44:02;;;;;;;9.90;1.90;;;;;;;;;;5040880;28;20203;-89
2023/10/30 00:46:30;;;;;;;10.73;1.80;;;;;;;;;;5020500;28;20208;-88
2023/10/30 00:48:57;;;;;;;13.03;2.37;;;;;;;;;;5034514;28;20195;-88
2023/10/30 00:51:24;;;;;;;10.40;2.37;;;;;;;;;;5037488;28;20231;-88
2023/10/30 00:53:53;;;;;;;10.87;2.20;;;;;;;;;;5033865;28;20201;-88
2023/10/30 00:56:21;;;;;;;10.70;1.83;;;;;;;;;;5020211;28;20203;-88
2023/10/30 00:58:48;;;;;;;10.23;2.53;;;;;;;;;;5035169;28;20277;-88
2023/10/30 01:01:17;;;;;;;9.83;2.07;;;;;;;;;;5036582;28;20202;-89
2023/10/30 01:03:45;;;;;;;10.97;1.80;;;;;;;;;;5043313;28;20188;-87
2023/10/30 01:06:13;;;;;;;10.77;2.40;;;;;;;;;;5038390;28;20226;-87
2023/10/30 01:08:40;;;;;;;10.77;2.13;;;;;;;;;;5036264;28;20720;-87
2023/10/30 01:11:09;;;;;;;14.10;2.27;;;;;;;;;;5035368;28;20646;-87
2023/10/30 01:13:36;;;;;;;12.53;2.13;;;;;;;;;;5043907;28;20223;-86
2023/10/30 01:16:05;;;;;;;9.63;2.00;;;;;;;;;;5037363;28;20208;-88
2023/10/30 01:18:32;;;;;;;11.50;1.93;;;;;;;;;;5043901;28;20970;-89
2023/10/30 01:20:59;;;;;;;12.53;2.23;;;;;;;;;;5041389;28;20319;-89
2023/10/30 01:23:27;;;;;;;11.93;1.90;;;;;;;;;;5043727;28;20228;-88
2023/10/30 01:25:54;;;;;;;10.93;2.20;;;;;;;;;;5047415;28;20227;-88
2023/10/30 01:28:22;;;;;;;8.13;1.67;;;;;;;;;;5041512;28;20327;-88
2023/10/30 01:30:50;;;;;;;15.40;2.17;;;;;;;;;;5051779;28;20243;-88
2023/10/30 01:33:17;;;;;;;11.53;2.20;;;;;;;;;;5037984;28;20283;-88
2023/10/30 01:35:44;;;;;;;12.03;1.80;;;;;;;;;;5043480;28;20188;-88
2023/10/30 01:38:11;;;;;;;13.40;2.07;;;;;;;;;;5048833;28;20298;-88
2023/10/30 01:40:39;;;;;;;10.93;2.07;;;;;;;;;;5038670;28;20318;-89
2023/10/30 01:43:09;;;;;;;11.57;2.17;;;;;;;;;;5047984;28;20257;-87
2023/10/30 01:45:38;;;;;;;9.53;1.93;;;;;;;;;;5042240;28;20204;-87
2023/10/30 01:48:06;;;;;;;14.63;2.30;;;;;;;;;;5041154;28;20203;-88
2023/10/30 01:50:33;;;;;;;13.93;2.20;;;;;;;;;;5044803;28;20632;-88
2023/10/30 01:53:00;;;;;;;12.80;2.13;;;;;;;;;;5045688;28;20287;-88
2023/10/30 01:55:28;;;;;;;17.93;2.70;;;;;;;;;;5048259;28;20227;-87
2023/10/30 01:57:56;;;;;;;11.33;2.10;;;;;;;;;;5040890;28;20236;-88
2023/10/30 02:00:23;;;;;;;9.30;2.13;;;;;;;;;;5041163;28;20295;-89
2023/10/30 02:02:52;;;;;;;12.63;2.03;;;;;;;;;;5037627;28;20644;-88
2023/10/30 02:05:20;;;;;;;9.17;2.00;;;;;;;;;;5019585;28;20283;-88
2023/10/30 02:07:47;;;;;;;12.40;1.90;;;;;;;;;;5027994;28;20207;-89
2023/10/30 02:10:15;;;;;;;11.83;2.63;;;;;;;;;;5042533;28;20295;-88
2023/10/30 02:12:43;;;;;;;14.63;2.53;;;;;;;;;;5040606;28;20282;-88
2023/10/30 02:15:11;;;;;;;14.97;2.33;;;;;;;;;;5020991;28;20476;-88
2023/10/30 02:17:38;;;;;;;13.97;2.00;;;;;;;;;;5042307;28;20196;-88
2023/10/30 02:20:08;;;;;;;10.43;2.17;;;;;;;;;;5040710;28;20693;-88
2023/10/30 02:22:35;;;;;;;12.30;2.60;;;;;;;;;;5035870;28;20229;-89
2023/10/30 02:25:03;;;;;;;10.43;1.93;;;;;;;;;;5023470;28;20206;-89
2023/10/30 02:27:32;;;;;;;15.30;1.90;;;;;;;;;;5044122;28;20563;-89
2023/10/30 02:29:59;;;;;;;12.33;2.20;;;;;;;;;;5047837;28;20694;-88
2023/10/30 02:32:26;;;;;;;12.90;2.00;;;;;;;;;;5036951;28;20199;-89
2023/10/30 02:34:54;;;;;;;13.63;2.10;;;;;;;;;;5038264;28;20239;-88
2023/10/30 02:37:21;;;;;;;10.97;2.37;;;;;;;;;;5037001;28;20327;-88
2023/10/30 02:39:48;;;;;;;13.50;2.53;;;;;;;;;;5036428;28;20628;-87
2023/10/30 02:42:15;;;;;;;14.73;2.50;;;;;;;;;;5045634;28;20287;-87
2023/10/30 02:44:44;;;;;;;10.20;2.10;;;;;;;;;;5045074;28;20295;-87
2023/10/30 02:47:11;;;;;;;12.93;2.40;;;;;;;;;;5034601;28;20192;-87
2023/10/30 02:49:39;;;;;;;8.73;2.00;;;;;;;;;;5039864;28;20235;-89
2023/10/30 02:52:06;;;;;;;11.37;2.17;;;;;;;;;;5036235;28;20255;-88
2023/10/30 02:54:33;;;;;;;7.50;1.60;;;;;;;;;;5040445;28;20211;-89
2023/10/30 02:57:01;;;;;;;10.07;1.93;;;;;;;;;;5033007;28;20198;-89
2023/10/30 02:59:28;;;;;;;12.53;2.03;;;;;;;;;;5043216;28;20286;-88
2023/10/30 03:01:58;;;;;;;10.13;1.80;;;;;;;;;;5040068;28;20236;-88
2023/10/30 03:04:25;;;;;;;9.50;1.90;;;;;;;;;;5045664;28;20652;-88
2023/10/30 03:06:52;;;;;;;8.53;1.57;;;;;;;;;;5036959;28;20539;-88
2023/10/30 03:09:19;;;;;;;14.53;2.20;;;;;;;;;;5042670;28;20308;-89
2023/10/30 03:11:47;;;;;;;10.13;2.10;;;;;;;;;;5036042;28;20204;-88
2023/10/30 03:14:14;;;;;;;12.27;2.20;;;;;;;;;;5042957;28;20756;-89
2023/10/30 03:16:41;;;;;;;10.20;1.87;;;;;;;;;;5048074;28;20736;-88
2023/10/30 03:19:10;;;;;;;11.57;2.10;;;;;;;;;;5019496;28;20200;-89
2023/10/30 03:21:37;;;;;;;13.80;2.10;;;;;;;;;;5038727;28;20318;-88
2023/10/30 03:24:05;;;;;;;8.83;1.97;;;;;;;;;;5024030;28;20209;-89
2023/10/30 03:26:32;;;;;;;11.53;1.93;;;;;;;;;;5041845;28;20243;-88
2023/10/30 03:28:59;;;;;;;12.53;1.83;;;;;;;;;;5038775;28;20633;-87
2023/10/30 03:31:26;;;;;;;8.47;1.67;;;;;;;;;;5042429;28;20267;-87
2023/10/30 03:33:54;;;;;;;9.00;1.47;;;;;;;;;;5037461;28;20299;-87
2023/10/30 03:36:23;;;;;;;12.37;1.70;;;;;;;;;;5044814;28;20262;-88
2023/10/30 03:38:51;;;;;;;13.27;1.90;;;;;;;;;;5041616;28;20207;-88
2023/10/30 03:41:19;;;;;;;11.87;1.90;;;;;;;;;;5048440;28;20238;-88
2023/10/30 03:43:46;;;;;;;10.80;1.90;;;;;;;;;;5034734;28;20640;-88
2023/10/30 03:46:14;;;;;;;13.27;1.87;;;;;;;;;;5036329;28;20228;-87
2023/10/30 03:48:41;;;;;;;9.60;1.67;;;;;;;;;;5036549;28;20634;-88
2023/10/30 03:51:09;;;;;;;9.53;1.93;;;;;;;;;;5035153;28;20287;-88
2023/10/30 03:53:37;;;;;;;9.70;1.83;;;;;;;;;;5044980;28;20684;-89
2023/10/30 03:56:06;;;;;;;11.17;2.07;;;;;;;;;;5042639;28;21452;-88
2023/10/30 03:58:33;;;;;;;6.93;1.17;;;;;;;;;;5041431;28;20587;-88
2023/10/30 04:01:05;;;;;;;8.17;1.67;;;;;;;;;;5038886;28;20224;-89
2023/10/30 04:03:32;;;;;;;9.43;1.63;;;;;;;;;;5036569;28;20227;-89
2023/10/30 04:06:01;;;;;;;9.40;2.00;;;;;;;;;;5035954;28;20230;-89
2023/10/30 04:08:29;;;;;;;10.67;1.53;;;;;;;;;;5039094;28;20200;-89
2023/10/30 04:10:57;;;;;;;10.70;1.60;;;;;;;;;;5048161;28;20243;-88
2023/10/30 04:13:24;;;;;;;9.70;1.30;;;;;;;;;;5038062;28;20200;-89
2023/10/30 04:15:52;;;;;;;8.67;1.57;;;;;;;;;;5044583;28;20319;-89
2023/10/30 04:18:19;;;;;;;5.67;1.30;;;;;;;;;;5033003;28;20200;-88
2023/10/30 04:20:47;;;;;;;8.23;1.50;;;;;;;;;;5031891;28;20311;-89
2023/10/30 04:23:14;;;;;;;3.20;1.00;;;;;;;;;;5042722;28;20279;-88
2023/10/30 04:25:41;;;;;;;9.13;1.20;;;;;;;;;;5037946;28;20231;-88
2023/10/30 04:28:10;;;;;;;7.23;1.40;;;;;;;;;;5040236;28;20235;-88
2023/10/30 04:30:38;;;;;;;8.80;1.43;;;;;;;;;;5041694;28;20310;-88
2023/10/30 04:33:05;;;;;;;5.50;1.23;;;;;;;;;;5041481;28;20668;-90
2023/10/30 04:35:33;;;;;;;8.80;1.57;;;;;;;;;;5043080;28;20292;-89
2023/10/30 04:38:00;;;;;;;9.97;1.20;;;;;;;;;;5042164;28;20210;-90
2023/10/30 04:40:27;;;;;;;7.33;1.57;;;;;;;;;;5045648;28;20252;-89
2023/10/30 04:42:55;;;;;;;9.03;1.40;;;;;;;;;;5044023;28;20323;-88
2023/10/30 04:45:23;;;;;;;5.33;1.30;;;;;;;;;;5038328;28;20947;-89
2023/10/30 04:47:51;;;;;;;5.77;1.40;;;;;;;;;;5037175;28;20247;-89
2023/10/30 04:50:18;;;;;;;5.50;1.00;;;;;;;;;;5044830;28;20287;-88
2023/10/30 04:52:45;;;;;;;6.03;1.20;;;;;;;;;;5043695;28;20253;-88
2023/10/30 04:55:12;;;;;;;5.90;1.50;;;;;;;;;;5022008;28;20200;-88
2023/10/30 04:57:40;;;;;;;7.13;1.30;;;;;;;;;;5042756;28;20261;-88
2023/10/30 05:00:08;;;;;;;7.30;1.17;;;;;;;;;;5027891;28;20223;-87
2023/10/30 05:02:36;;;;;;;5.53;0.93;;;;;;;;;;5038242;28;20251;-87
2023/10/30 05:05:04;;;;;;;5.10;1.40;;;;;;;;;;5039131;28;20778;-89
2023/10/30 05:07:31;;;;;;;6.33;1.13;;;;;;;;;;5042673;28;20227;-88
2023/10/30 05:09:58;;;;;;;7.23;1.30;;;;;;;;;;5014858;28;20211;-88
2023/10/30 05:12:26;;;;;;;6.13;1.40;;;;;;;;;;5038570;28;20239;-88
2023/10/30 05:14:53;;;;;;;6.43;1.60;;;;;;;;;;5035030;28;20331;-88
2023/10/30 05:17:20;;;;;;;9.27;1.27;;;;;;;;;;5051263;28;20251;-88
2023/10/30 05:19:49;;;;;;;6.03;1.37;;;;;;;;;;5039008;28;20200;-88
2023/10/30 05:22:16;;;;;;;4.37;1.20;;;;;;;;;;5043948;28;20263;-87
2023/10/30 05:24:43;;;;;;;7.37;1.30;;;;;;;;;;5046592;28;20667;-87
2023/10/30 05:27:11;;;;;;;7.20;1.73;;;;;;;;;;5045523;28;20717;-88
2023/10/30 05:29:38;;;;;;;7.30;1.30;;;;;;;;;;5047276;28;20263;-87
2023/10/30 05:32:07;;;;;;;6.20;1.30;;;;;;;;;;5045392;28;20195;-88
2023/10/30 05:34:34;;;;;;;8.60;1.60;;;;;;;;;;5040150;28;20653;-89
2023/10/30 05:37:05;;;;;;;4.97;1.10;;;;;;;;;;5035721;28;20231;-88
2023/10/30 05:39:32;;;;;;;6.53;1.30;;;;;;;;;;5041258;28;20198;-88
2023/10/30 05:41:59;;;;;;;7.77;1.27;;;;;;;;;;5044587;28;20270;-89
2023/10/30 05:44:27;;;;;;;5.90;1.20;;;;;;;;;;5038568;28;20203;-89
2023/10/30 05:46:54;;;;;;;5.17;1.07;;;;;;;;;;5041680;28;20204;-89
2023/10/30 05:49:21;;;;;;;3.87;1.00;;;;;;;;;;5047237;28;20307;-89
2023/10/30 05:51:48;;;;;;;5.90;1.60;;;;;;;;;;5044284;28;20287;-88
2023/10/30 05:54:17;;;;;;;5.30;1.10;;;;;;;;;;5044970;28;20223;-87
2023/10/30 05:56:44;;;;;;;3.90;1.27;;;;;;;;;;5042988;28;20235;-86
2023/10/30 05:59:12;;;;;;;5.80;1.40;;;;;;;;;;5040640;28;20223;-83
2023/10/30 06:01:39;;;;;;;6.07;1.67;;;;;;;;;;5042264;28;20314;-84
2023/10/30 06:04:06;;;;;;;3.23;1.30;;;;;;;;;;5041316;28;20235;-84
2023/10/30 06:06:33;;;;;;;4.53;1.30;;;;;;;;;;5038655;28;20239;-86
2023/10/30 06:09:01;;;;;;;3.73;1.03;;;;;;;;;;5040944;28;20223;-86
2023/10/30 06:11:30;;;;;;;3.87;1.10;;;;;;;;;;5031760;28;20206;-85
2023/10/30 06:13:57;;;;;;;4.23;1.20;;;;;;;;;;5035979;28;20204;-84
2023/10/30 06:16:24;;;;;;;2.93;0.90;;;;;;;;;;5036872;28;20243;-84
2023/10/30 06:18:51;;;;;;;5.57;1.10;;;;;;;;;;5040954;28;20700;-85
2023/10/30 06:21:19;;;;;;;3.77;1.10;;;;;;;;;;5035587;28;20220;-85
2023/10/30 06:23:46;;;;;;;3.00;1.00;;;;;;;;;;5045820;28;20294;-85
2023/10/30 06:26:14;;;;;;;3.67;1.10;;;;;;;;;;5033850;28;20276;-84
2023/10/30 06:28:43;;;;;;;4.43;1.30;;;;;;;;;;5042219;28;20230;-85
2023/10/30 06:31:14;;;;;;;5.50;1.00;;;;;;;;;;5037642;28;20243;-87
2023/10/30 06:33:41;;;;;;;4.37;1.20;;;;;;;;;;5040902;28;20251;-88
2023/10/30 06:36:09;;;;;;;4.80;1.23;;;;;;;;;;5041457;28;20208;-87
2023/10/30 06:38:36;;;;;;;1.90;0.70;;;;;;;;;;5034842;28;20228;-85
2023/10/30 06:41:04;;;;;;;5.77;1.20;;;;;;;;;;5039444;28;20302;-87
2023/10/30 06:43:32;;;;;;;5.23;1.20;;;;;;;;;;5041828;28;20208;-86
2023/10/30 06:46:01;;;;;;;6.33;1.93;;;;;;;;;;5039557;28;20223;-87
2023/10/30 06:48:29;;;;;;;3.33;1.10;;;;;;;;;;5035848;28;20227;-87
2023/10/30 06:50:56;;;;;;;5.67;1.30;;;;;;;;;;5042454;28;20240;-87
2023/10/30 06:53:24;;;;;;;5.20;1.40;;;;;;;;;;5041327;28;20211;-85
2023/10/30 06:55:51;;;;;;;6.63;1.50;;;;;;;;;;5038433;28;20303;-87
2023/10/30 06:58:18;;;;;;;4.73;1.60;;;;;;;;;;5045128;28;20282;-87
2023/10/30 07:00:46;;;;;;;4.83;1.33;;;;;;;;;;5038076;28;20196;-86
2023/10/30 07:03:15;;;;;;;2.93;1.60;;;;;;;;;;5037942;28;20684;-86
2023/10/30 07:05:42;;;;;;;5.57;1.57;;;;;;;;;;5041968;28;20240;-87
2023/10/30 07:08:10;;;;;;;4.27;1.40;;;;;;;;;;5044200;28;20682;-86
2023/10/30 07:10:37;;;;;;;4.00;1.30;;;;;;;;;;5038665;28;20287;-87
2023/10/30 07:13:04;;;;;;;3.97;1.70;;;;;;;;;;5036034;28;20204;-86
2023/10/30 07:15:31;;;;;;;4.17;1.57;;;;;;;;;;5038652;28;20762;-87
2023/10/30 07:17:58;;;;;;;4.13;1.70;;;;;;;;;;5038517;28;20199;-88
2023/10/30 07:20:27;;;;;;;5.23;2.20;;;;;;;;;;5044627;28;20210;-87
2023/10/30 07:22:54;;;;;;;5.00;1.60;;;;;;;;;;5041922;28;20323;-87
2023/10/30 07:25:21;;;;;;;6.23;2.00;;;;;;;;;;5038385;28;20258;-87
2023/10/30 07:27:49;;;;;;;4.33;1.90;;;;;;;;;;5036850;28;20204;-86
2023/10/30 07:30:16;;;;;;;7.10;2.13;;;;;;;;;;5042199;28;20328;-87
2023/10/30 07:32:45;;;;;;;6.17;1.97;;;;;;;;;;5040304;28;20204;-87
2023/10/30 07:35:12;;;;;;;4.67;1.60;;;;;;;;;;5033832;28;20746;-86
2023/10/30 07:37:40;;;;;;;5.43;1.77;;;;;;;;;;5039859;28;20203;-87
2023/10/30 07:40:09;;;;;;;3.93;1.70;;;;;;;;;;5036933;28;20228;-86
2023/10/30 07:42:37;;;;;;;4.33;1.80;;;;;;;;;;5042092;28;20318;-86
2023/10/30 07:45:05;;;;;;;5.57;1.67;;;;;;;;;;5044274;28;20708;-87
2023/10/30 07:47:32;;;;;;;5.53;1.57;;;;;;;;;;5045535;28;20206;-87
2023/10/30 07:50:01;;;;;;;5.07;1.47;;;;;;;;;;5038092;28;20292;-87
2023/10/30 07:52:28;;;;;;;6.33;1.80;;;;;;;;;;5031090;28;20291;-87
2023/10/30 07:54:57;;;;;;;4.83;2.00;;;;;;;;;;5037243;28;20684;-87
2023/10/30 07:57:25;;;;;;;6.23;1.80;;;;;;;;;;5048255;28;20286;-87
2023/10/30 07:59:52;;;;;;;5.80;1.93;;;;;;;;;;5033843;28;20208;-86
2023/10/30 08:02:19;;;;;;;4.20;1.73;;;;;;;;;;5037397;28;20658;-86
2023/10/30 08:04:46;;;;;;;6.53;1.80;;;;;;;;;;5047365;28;20568;-87
2023/10/30 08:07:13;;;;;;;4.53;1.80;;;;;;;;;;5033797;28;20517;-87
2023/10/30 08:09:41;;;;;;;3.37;1.43;;;;;;;;;;5038089;28;20272;-83
2023/10/30 08:12:10;;;;;;;5.33;1.60;;;;;;;;;;5027858;28;20270;-83
2023/10/30 08:14:38;;;;;;;4.67;1.60;;;;;;;;;;5044003;28;20675;-83
2023/10/30 08:17:05;;;;;;;6.10;2.13;;;;;;;;;;5028297;28;20204;-82
2023/10/30 08:19:32;;;;;;;6.50;1.60;;;;;;;;;;5027876;28;20255;-83
2023/10/30 08:21:59;;;;;;;5.57;2.00;;;;;;;;;;5033854;28;20303;-83
2023/10/30 08:24:27;;;;;;;4.00;2.23;;;;;;;;;;5017117;28;20207;-82
2023/10/30 08:26:54;;;;;;;4.97;1.97;;;;;;;;;;5038710;28;20224;-83
2023/10/30 08:29:23;;;;;;;4.77;2.20;;;;;;;;;;5039142;28;20757;-82
2023/10/30 08:31:50;;;;;;;5.70;1.97;;;;;;;;;;5032678;28;20731;-82
2023/10/30 08:34:18;;;;;;;3.27;1.80;;;;;;;;;;5033666;28;20278;-81
2023/10/30 08:36:45;;;;;;;4.90;2.00;;;;;;;;;;5031513;28;20247;-82
2023/10/30 08:39:13;;;;;;;4.80;2.03;;;;;;;;;;5040141;28;20206;-83
2023/10/30 08:41:40;;;;;;;5.93;2.53;;;;;;;;;;5034554;28;20231;-83
2023/10/30 08:44:08;;;;;;;4.70;2.00;;;;;;;;;;5044354;28;20232;-83
2023/10/30 08:46:36;;;;;;;4.00;2.23;;;;;;;;;;5038863;28;20220;-83
2023/10/30 08:49:04;;;;;;;4.47;2.00;;;;;;;;;;5044356;28;20225;-83
2023/10/30 08:51:31;;;;;;;4.87;1.83;;;;;;;;;;5039603;28;20254;-84
2023/10/30 08:53:59;;;;;;;3.03;1.70;;;;;;;;;;5039305;28;20292;-83
2023/10/30 08:56:26;;;;;;;4.00;1.80;;;;;;;;;;5047576;28;20232;-83
2023/10/30 08:58:54;;;;;;;5.47;2.20;;;;;;;;;;5034771;28;20302;-84
2023/10/30 09:01:22;;;;;;;3.40;1.70;;;;;;;;;;5045549;28;20758;-83
2023/10/30 09:03:52;;;;;;;3.53;1.30;;;;;;;;;;5027817;28;20231;-83
2023/10/30 09:06:20;;;;;;;5.10;1.70;;;;;;;;;;5043032;28;20586;-83
2023/10/30 09:08:48;;;;;;;4.07;1.77;;;;;;;;;;5039808;28;20204;-83
2023/10/30 09:11:15;;;;;;;4.10;1.80;;;;;;;;;;5033186;28;20283;-84
2023/10/30 09:13:42;;;;;;;3.57;2.27;;;;;;;;;;5043376;28;20283;-84
2023/10/30 09:16:11;;;;;;;4.13;1.60;;;;;;;;;;5019598;28;20206;-83
2023/10/30 09:18:39;;;;;;;3.90;2.03;;;;;;;;;;5038247;28;20291;-83
2023/10/30 09:21:08;;;;;;;5.00;1.87;;;;;;;;;;5034275;28;20908;-82
2023/10/30 09:23:35;;;;;;;4.73;1.93;;;;;;;;;;5038780;28;20699;-82
2023/10/30 09:26:05;;;;;;;8.73;2.00;;;;;;;;;;5037696;28;20226;-84
2023/10/30 09:28:33;;;;;;;3.47;1.60;;;;;;;;;;5035287;28;20290;-84
2023/10/30 09:31:00;;;;;;;4.77;2.30;;;;;;;;;;5039002;28;20228;-83
2023/10/30 09:33:27;;;;;;;4.77;2.37;;;;;;;;;;5042094;28;20235;-84
2023/10/30 09:35:53;;;;;;;3.80;1.80;;;;;;;;;;5038981;28;20716;-83
2023/10/30 09:38:22;;;;;;;2.53;1.83;;;;;;;;;;5036546;28;20213;-83
2023/10/30 09:40:54;;;;;;;3.10;2.00;;;;;;;;;;5035148;28;20742;-84
2023/10/30 09:43:21;;;;;;;3.17;1.93;;;;;;;;;;5033394;28;20228;-84
2023/10/30 09:45:52;;;;;;;3.90;1.90;;;;;;;;;;5045801;28;20204;-83
2023/10/30 09:48:20;;;;;;;5.03;1.50;;;;;;;;;;5052801;28;20295;-84
2023/10/30 09:50:47;;;;;;;2.57;1.43;;;;;;;;;;5038360;28;20270;-84
2023/10/30 09:53:15;;;;;;;2.80;1.40;;;;;;;;;;5050167;28;20910;-85
2023/10/30 09:55:45;;;;;;;3.10;1.30;;;;;;;;;;5031015;28;20287;-85
2023/10/30 09:58:12;;;;;;;4.20;1.77;;;;;;;;;;5043725;28;20212;-85
2023/10/30 10:00:41;;;;;;;3.87;1.50;;;;;;;;;;5033533;28;20736;-84
2023/10/30 10:03:11;;;;;;;1.70;1.23;;;;;;;;;;5049205;28;20227;-85
2023/10/30 10:05:38;;;;;;;3.10;1.47;;;;;;;;;;5040392;28;20221;-85
2023/10/30 10:08:06;;;;;;;6.63;1.10;;;;;;;;;;5034137;28;20247;-86
2023/10/30 10:10:54;;;;;;;2.50;0.97;;;;;;;;;;5033051;28;20262;-86
2023/10/30 10:13:22;;;;;;;1.90;1.30;;;;;;;;;;5030488;28;20637;-86
2023/10/30 10:15:49;;;;;;;2.00;1.17;;;;;;;;;;5033265;28;20201;-85
2023/10/30 10:18:24;;;;;;;2.00;1.10;;;;;;;;;;5032675;28;20660;-85
2023/10/30 10:21:01;;;;;;;2.47;1.00;;;;;;;;;;5027337;28;20587;-85
2023/10/30 10:23:31;;;;;;;1.90;1.20;;;;;;;;;;5020544;28;20224;-86
2023/10/30 10:26:01;;;;;;;4.87;1.40;;;;;;;;;;5019607;28;20202;-86
2023/10/30 10:28:28;;;;;;;3.53;1.07;;;;;;;;;;5032375;28;20204;-87
2023/10/30 10:30:56;;;;;;;3.57;1.40;;;;;;;;;;5032947;28;20264;-86
2023/10/30 10:33:24;;;;;;;2.93;1.60;;;;;;;;;;5045361;28;20630;-87
2023/10/30 10:35:54;;;;;;;4.03;2.00;;;;;;;;;;5052871;28;20235;-86
2023/10/30 10:38:22;;;;;;;2.57;1.00;;;;;;;;;;5053095;28;20199;-84
2023/10/30 10:40:50;;;;;;;5.63;1.80;;;;;;;;;;5046421;28;20212;-86
2023/10/30 10:43:20;;;;;;;2.37;1.10;;;;;;;;;;5033355;28;20228;-86
2023/10/30 10:45:48;;;;;;;3.80;1.20;;;;;;;;;;5045896;28;20611;-86
2023/10/30 10:48:15;;;;;;;3.97;1.60;;;;;;;;;;5053248;28;20253;-85
2023/10/30 10:50:42;;;;;;;4.23;1.10;;;;;;;;;;5041650;28;20295;-86
2023/10/30 10:53:11;;;;;;;7.27;2.17;;;;;;;;;;5036245;28;20716;-84
2023/10/30 10:55:41;;;;;;;5.60;2.03;;;;;;;;;;5025873;28;20204;-84
2023/10/30 10:58:10;;;;;;;3.77;1.37;;;;;;;;;;5032394;28;20279;-85
2023/10/30 11:00:46;;;;;;;3.73;1.30;;;;;;;;;;5031917;28;20286;-86
2023/10/30 11:03:13;;;;;;;2.50;1.30;;;;;;;;;;5032458;28;20228;-85
2023/10/30 11:05:43;;;;;;;3.37;1.60;;;;;;;;;;5017201;28;20733;-84
2023/10/30 11:08:21;;;;;;;2.33;1.20;;;;;;;;;;5022551;28;20212;-85
2023/10/30 11:10:49;;;;;;;4.83;1.53;;;;;;;;;;5030935;28;20260;-85
2023/10/30 11:13:21;;;;;;;4.10;1.83;;;;;;;;;;5042287;28;20595;-84
2023/10/30 11:15:52;;;;;;;5.13;1.50;;;;;;;;;;5036164;28;20228;-85
2023/10/30 11:18:21;;;;;;;3.37;1.40;;;;;;;;;;5024168;28;20267;-84
2023/10/30 11:20:49;;;;;;;3.70;1.53;;;;;;;;;;5033643;28;20255;-84
2023/10/30 11:23:36;;;;;;;2.43;1.50;;;;;;;;;;5034242;28;20235;-83
2023/10/30 11:26:03;;;;;;;3.93;1.90;;;;;;;;;;5033529;28;20227;-85
2023/10/30 11:28:35;;;;;;;3.57;1.87;;;;;;;;;;5031591;28;20203;-85
2023/10/30 11:31:08;;;;;;;3.77;2.40;;;;;;;;;;5038978;28;20228;-85
2023/10/30 11:33:36;;;;;;;3.57;1.57;;;;;;;;;;5037126;28;20228;-84
2023/10/30 11:36:22;;;;;;;3.87;1.60;;;;;;;;;;5034488;28;20258;-84
2023/10/30 11:38:50;;;;;;;3.07;1.70;;;;;;;;;;5017053;28;20197;-85
2023/10/30 11:41:18;;;;;;;3.37;1.93;;;;;;;;;;5037789;28;20235;-86
2023/10/30 11:43:46;;;;;;;2.77;2.00;;;;;;;;;;5031587;28;20232;-86
2023/10/30 11:46:18;;;;;;;4.00;2.53;;;;;;;;;;5011847;28;20204;-86
2023/10/30 11:48:45;;;;;;;3.57;2.30;;;;;;;;;;5032003;28;20208;-85
2023/10/30 11:51:14;;;;;;;3.50;1.93;;;;;;;;;;5031712;28;20196;-85
2023/10/30 11:53:43;;;;;;;3.47;1.90;;;;;;;;;;5029762;28;20208;-85
2023/10/30 11:56:13;;;;;;;3.10;1.60;;;;;;;;;;5032077;28;20204;-85
2023/10/30 11:58:40;;;;;;;3.67;2.00;;;;;;;;;;5029604;28;20239;-85
2023/10/30 12:01:09;;;;;;;3.57;1.97;;;;;;;;;;5046807;28;20846;-84
2023/10/30 12:03:37;;;;;;;2.33;1.90;;;;;;;;;;5022271;28;20310;-84
2023/10/30 12:06:05;;;;;;;3.23;1.70;;;;;;;;;;5044577;28;20226;-85
2023/10/30 12:08:34;;;;;;;3.83;2.13;;;;;;;;;;5029823;28;20694;-82
2023/10/30 12:11:01;;;;;;;2.70;2.10;;;;;;;;;;5007313;28;20209;-83
2023/10/30 12:13:28;;;;;;;2.50;1.90;;;;;;;;;;5024671;28;20226;-83
2023/10/30 12:15:56;;;;;;;3.07;2.10;;;;;;;;;;5028088;28;22101;-83
2023/10/30 12:18:23;;;;;;;2.67;2.30;;;;;;;;;;5030352;28;20193;-83
2023/10/30 12:20:52;;;;;;;4.23;2.10;;;;;;;;;;5028983;28;20210;-83
2023/10/30 12:23:19;;;;;;;3.73;2.27;;;;;;;;;;5027009;28;20216;-82
2023/10/30 12:25:50;;;;;;;2.57;1.73;;;;;;;;;;5023660;28;20246;-82
2023/10/30 12:28:17;;;;;;;4.13;2.30;;;;;;;;;;5029246;28;20253;-82
2023/10/30 12:30:45;;;;;;;3.70;2.63;;;;;;;;;;5025798;28;20426;-82
2023/10/30 12:33:13;;;;;;;4.20;2.80;;;;;;;;;;5025447;28;20287;-83
2023/10/30 12:35:42;;;;;;;3.90;3.50;;;;;;;;;;5025429;28;20212;-81
2023/10/30 12:38:19;;;;;;;5.03;3.43;;;;;;;;;;5031144;28;20239;-81
2023/10/30 12:40:47;;;;;;;4.20;2.40;;;;;;;;;;5030574;28;20203;-81
2023/10/30 12:43:14;;;;;;;2.23;1.17;;;;;;;;;;5027015;28;20228;-82
2023/10/30 12:45:41;;;;;;;1.80;1.30;;;;;;;;;;5034017;28;20288;-82
2023/10/30 12:48:09;;;;;;;2.57;1.30;;;;;;;;;;5024649;28;20208;-81
2023/10/30 12:50:37;;;;;;;2.10;0.90;;;;;;;;;;5030495;28;20211;-81
2023/10/30 12:53:04;;;;;;;4.60;1.60;;;;;;;;;;5026513;28;20661;-81
2023/10/30 12:55:33;;;;;;;2.33;1.33;;;;;;;;;;5024314;28;20204;-81
2023/10/30 12:58:00;;;;;;;2.47;1.30;;;;;;;;;;5024758;28;20240;-82
2023/10/30 13:00:27;;;;;;;2.20;1.33;;;;;;;;;;5024474;28;20216;-82
2023/10/30 13:02:54;;;;;;;2.23;1.43;;;;;;;;;;5025942;28;20315;-82
2023/10/30 13:05:22;;;;;;;2.07;1.40;;;;;;;;;;5026175;28;20200;-81
2023/10/30 13:07:49;;;;;;;2.57;1.40;;;;;;;;;;5030429;28;20279;-82
2023/10/30 13:10:16;;;;;;;2.23;1.00;;;;;;;;;;5024689;28;20287;-81
2023/10/30 13:12:45;;;;;;;1.30;0.87;;;;;;;;;;5027111;28;20236;-81
2023/10/30 13:15:12;;;;;;;2.07;1.20;;;;;;;;;;5043481;28;20246;-81
2023/10/30 13:17:40;;;;;;;1.93;1.13;;;;;;;;;;5050638;28;20196;-82
2023/10/30 13:20:08;;;;;;;1.60;1.20;;;;;;;;;;5054318;28;20265;-81
2023/10/30 13:22:35;;;;;;;1.87;0.60;;;;;;;;;;5054703;28;20206;-82
2023/10/30 13:25:03;;;;;;;1.17;0.50;;;;;;;;;;5054035;28;20255;-81
2023/10/30 13:27:32;;;;;;;0.90;0.50;;;;;;;;;;5054418;28;20569;-81
2023/10/30 13:30:03;;;;;;;1.63;0.67;;;;;;;;;;5054169;28;20293;-80
2023/10/30 13:32:32;;;;;;;0.83;0.47;;;;;;;;;;5054492;28;20192;-81
2023/10/30 13:35:00;;;;;;;1.63;0.50;;;;;;;;;;5040558;28;20200;-82
2023/10/30 13:37:27;;;;;;;2.67;0.75;;;;;;;;;;5034294;28;20212;-81
2023/10/30 13:39:54;;;;;;;0.77;0.43;;;;;;;;;;5034167;28;20201;-81
2023/10/30 13:42:21;;;;;;;1.67;0.70;;;;;;;;;;5033890;28;20292;-80
2023/10/30 13:44:48;;;;;;;1.10;0.70;;;;;;;;;;5034191;28;20236;-81
2023/10/30 13:47:18;;;;;;;0.68;0.45;;;;;;;;;;5033923;28;20231;-81
2023/10/30 13:49:45;;;;;;;1.48;0.80;;;;;;;;;;5034224;28;20605;-81
2023/10/30 13:52:13;;;;;;;1.38;0.50;;;;;;;;;;5033755;28;20238;-81
2023/10/30 13:54:40;;;;;;;0.85;0.38;;;;;;;;;;5033932;28;20201;-81
2023/10/30 13:57:07;;;;;;;0.52;0.38;;;;;;;;;;5033742;28;20232;-81
2023/10/30 13:59:35;;;;;;;1.02;0.55;;;;;;;;;;5034031;28;20196;-82
2023/10/30 14:02:02;;;;;;;2.55;0.70;;;;;;;;;;5034247;28;20287;-81
2023/10/30 14:04:31;;;;;;;2.67;0.98;;;;;;;;;;5033341;28;20316;-81
2023/10/30 14:06:58;;;;;;;1.65;0.63;;;;;;;;;;5033445;28;20228;-81
2023/10/30 14:09:25;;;;;;;2.65;0.90;;;;;;;;;;5033184;28;20232;-81
2023/10/30 14:11:52;;;;;;;1.73;0.63;;;;;;;;;;5033855;28;20197;-81
2023/10/30 14:14:20;;;;;;;1.30;0.73;;;;;;;;;;5033680;28;20945;-81
2023/10/30 14:16:47;;;;;;;2.75;1.10;;;;;;;;;;5033785;28;20235;-81
2023/10/30 14:19:14;;;;;;;2.10;1.30;;;;;;;;;;5033370;28;20199;-80
2023/10/30 14:21:44;;;;;;;2.50;2.10;;;;;;;;;;5017890;28;20201;-82
2023/10/30 14:24:11;;;;;;;4.60;4.03;;;;;;;;;;5012631;28;20232;-81
2023/10/30 14:26:38;;;;;;;3.80;3.40;;;;;;;;;;5030825;28;20676;-81
2023/10/30 14:29:05;;;;;;;3.92;3.45;;;;;;;;;;5031286;28;20251;-81
2023/10/30 14:31:33;;;;;;;3.40;2.70;;;;;;;;;;5035667;28;20241;-80
2023/10/30 14:34:00;;;;;;;3.60;1.70;;;;;;;;;;5046894;28;20708;-81
2023/10/30 14:36:27;;;;;;;1.80;1.35;;;;;;;;;;5031955;28;20275;-80
2023/10/30 14:38:56;;;;;;;1.65;1.20;;;;;;;;;;5032301;28;20689;-81
2023/10/30 14:41:23;;;;;;;1.40;0.95;;;;;;;;;;5032831;28;20270;-81
2023/10/30 14:43:50;;;;;;;1.65;0.93;;;;;;;;;;5032882;28;20314;-80
2023/10/30 14:46:17;;;;;;;2.47;1.00;;;;;;;;;;5033019;28;20807;-80